createdAt,value
2019-01-21T00:00:57.310Z,73.79
2019-01-21T00:01:57.293Z,73.92
2019-01-21T00:02:57.283Z,75.15
2019-01-21T00:03:57.271Z,74.93
2019-01-21T00:04:57.303Z,74.97
2019-01-21T00:05:57.251Z,73.50
2019-01-21T00:06:57.243Z,73.50
2019-01-21T00:07:57.228Z,73.96
2019-01-21T00:08:57.217Z,75.70
2019-01-21T00:09:57.296Z,75.39
2019-01-21T00:10:57.199Z,75.49
2019-01-21T00:11:57.187Z,74.87
2019-01-21T00:12:57.181Z,74.87
2019-01-21T00:13:57.164Z,75.07
2019-01-21T00:14:57.155Z,74.34
2019-01-21T00:15:57.145Z,74.79
2019-01-21T00:16:57.178Z,74.97
2019-01-21T00:17:57.122Z,75.53
2019-01-21T00:18:57.111Z,74.79
2019-01-21T00:19:57.096Z,75.11
2019-01-21T00:20:57.087Z,75.21
2019-01-21T00:21:57.081Z,75.53
2019-01-21T00:22:57.066Z,75.11
2019-01-21T00:23:57.062Z,75.53
2019-01-21T00:24:57.040Z,75.88
2019-01-21T00:25:57.035Z,75.14
2019-01-21T00:26:57.025Z,75.35
2019-01-21T00:27:57.018Z,74.83
2019-01-21T00:28:57.002Z,75.42
2019-01-21T00:29:56.995Z,75.42
2019-01-21T00:30:56.984Z,75.35
2019-01-21T00:31:56.973Z,75.74
2019-01-21T00:32:56.961Z,75.74
2019-01-21T00:33:56.949Z,74.97
2019-01-21T00:34:56.944Z,74.76
2019-01-21T00:35:56.927Z,74.79
2019-01-21T00:37:03.322Z,75.60
2019-01-21T00:37:57.920Z,75.49
2019-01-21T00:38:56.964Z,75.70
2019-01-21T00:39:56.888Z,74.87
2019-01-21T00:40:56.882Z,74.13
2019-01-21T00:41:56.897Z,74.24
2019-01-21T00:42:56.852Z,74.13
2019-01-21T00:43:56.841Z,74.13
2019-01-21T00:44:56.834Z,75.18
2019-01-21T00:45:56.818Z,75.60
2019-01-21T00:46:56.828Z,75.11
2019-01-21T00:47:56.799Z,75.74
2019-01-21T00:48:56.785Z,75.11
2019-01-21T00:49:56.778Z,75.53
2019-01-21T00:50:56.761Z,76.16
2019-01-21T00:51:56.775Z,76.47
2019-01-21T00:52:56.739Z,75.11
2019-01-21T00:53:56.734Z,76.05
2019-01-21T00:54:56.735Z,75.21
2019-01-21T00:55:56.712Z,75.70
2019-01-21T00:56:56.699Z,75.53
2019-01-21T00:57:56.700Z,75.01
2019-01-21T00:58:56.683Z,75.42
2019-01-21T00:59:56.670Z,75.95
2019-01-21T01:00:56.654Z,75.74
2019-01-21T01:01:56.652Z,76.16
2019-01-21T01:02:56.637Z,75.74
2019-01-21T01:03:56.644Z,76.57
2019-01-21T01:04:56.611Z,76.05
2019-01-21T01:05:56.603Z,75.21
2019-01-21T01:06:56.591Z,75.84
2019-01-21T01:07:56.587Z,75.78
2019-01-21T01:08:56.576Z,76.09
2019-01-21T01:09:56.581Z,76.29
2019-01-21T01:10:56.561Z,76.19
2019-01-21T01:11:56.591Z,75.78
2019-01-21T01:12:56.525Z,75.98
2019-01-21T01:13:56.521Z,75.98
2019-01-21T01:14:56.517Z,76.16
2019-01-21T01:15:56.507Z,75.98
2019-01-21T01:16:57.307Z,76.19
2019-01-21T01:17:56.476Z,75.56
2019-01-21T01:18:56.477Z,76.82
2019-01-21T01:19:56.455Z,76.93
2019-01-21T01:20:56.454Z,77.24
2019-01-21T01:21:56.434Z,76.40
2019-01-21T01:22:56.432Z,76.61
2019-01-21T01:23:56.424Z,76.51
2019-01-21T01:24:56.397Z,76.51
2019-01-21T01:25:56.393Z,75.78
2019-01-21T01:26:56.402Z,76.40
2019-01-21T01:27:56.364Z,76.61
2019-01-21T01:28:56.368Z,76.82
2019-01-21T01:29:56.346Z,77.14
2019-01-21T01:30:56.336Z,76.82
2019-01-21T01:31:56.330Z,77.07
2019-01-21T01:32:56.318Z,78.33
2019-01-21T01:33:56.341Z,78.61
2019-01-21T01:34:56.293Z,78.39
2019-01-21T01:35:56.301Z,78.39
2019-01-21T01:36:56.271Z,77.52
2019-01-21T01:37:56.270Z,77.00
2019-01-21T01:38:56.259Z,77.52
2019-01-21T01:39:56.240Z,77.45
2019-01-21T01:40:56.236Z,75.98
2019-01-21T01:41:56.213Z,75.53
2019-01-21T01:42:56.212Z,75.42
2019-01-21T01:43:56.204Z,75.42
2019-01-21T01:44:56.184Z,75.95
2019-01-21T01:45:56.177Z,75.21
2019-01-21T01:46:56.167Z,75.32
2019-01-21T01:47:56.165Z,75.56
2019-01-21T01:48:56.153Z,76.61
2019-01-21T01:49:56.157Z,76.40
2019-01-21T01:50:56.139Z,76.72
2019-01-21T01:51:56.137Z,78.33
2019-01-21T01:52:56.123Z,77.34
2019-01-21T01:53:56.092Z,76.51
2019-01-21T01:54:56.098Z,77.14
2019-01-21T01:55:56.104Z,78.39
2019-01-21T01:56:56.081Z,76.72
2019-01-21T01:57:56.090Z,77.52
2019-01-21T01:58:56.033Z,77.03
2019-01-21T01:59:56.032Z,75.95
2019-01-21T02:00:56.013Z,75.88
2019-01-21T02:01:56.010Z,75.63
2019-01-21T02:02:56.001Z,75.35
2019-01-21T02:03:55.986Z,76.57
2019-01-21T02:04:55.980Z,76.09
2019-01-21T02:05:55.984Z,75.84
2019-01-21T02:06:55.955Z,76.09
2019-01-21T02:07:55.950Z,76.09
2019-01-21T02:08:55.929Z,76.40
2019-01-21T02:09:55.918Z,75.88
2019-01-21T02:10:55.908Z,76.09
2019-01-21T02:11:55.897Z,75.98
2019-01-21T02:12:55.890Z,76.40
2019-01-21T02:13:55.891Z,76.40
2019-01-21T02:14:55.862Z,76.40
2019-01-21T02:15:55.852Z,75.88
2019-01-21T02:16:55.846Z,75.70
2019-01-21T02:17:55.832Z,76.96
2019-01-21T02:18:55.828Z,77.70
2019-01-21T02:19:55.810Z,77.03
2019-01-21T02:20:55.805Z,77.28
2019-01-21T02:21:55.781Z,76.33
2019-01-21T02:22:55.781Z,76.86
2019-01-21T02:23:55.818Z,77.17
2019-01-21T02:24:55.757Z,76.93
2019-01-21T02:25:55.750Z,76.40
2019-01-21T02:26:55.744Z,75.38
2019-01-21T02:27:55.723Z,76.43
2019-01-21T02:28:55.714Z,76.86
2019-01-21T02:29:55.721Z,76.33
2019-01-21T02:30:55.690Z,76.43
2019-01-21T02:31:55.679Z,76.65
2019-01-21T02:32:55.712Z,76.54
2019-01-21T02:33:55.659Z,77.17
2019-01-21T02:34:55.666Z,76.75
2019-01-21T02:35:55.651Z,76.86
2019-01-21T02:36:55.622Z,76.65
2019-01-21T02:37:55.647Z,76.86
2019-01-21T02:38:55.604Z,77.10
2019-01-21T02:39:55.604Z,78.67
2019-01-21T02:40:55.592Z,77.62
2019-01-21T02:41:55.570Z,77.62
2019-01-21T02:42:55.562Z,78.36
2019-01-21T02:43:55.543Z,78.26
2019-01-21T02:44:55.537Z,78.36
2019-01-21T02:45:55.525Z,77.52
2019-01-21T02:46:55.522Z,78.47
2019-01-21T02:47:59.962Z,77.70
2019-01-21T02:48:55.495Z,77.48
2019-01-21T02:49:55.485Z,76.96
2019-01-21T02:50:55.470Z,77.48
2019-01-21T02:51:55.457Z,78.53
2019-01-21T02:52:55.452Z,77.59
2019-01-21T02:53:55.440Z,77.42
2019-01-21T02:54:55.436Z,78.89
2019-01-21T02:55:55.422Z,77.31
2019-01-21T02:56:55.411Z,77.21
2019-01-21T02:57:55.402Z,76.54
2019-01-21T02:58:55.399Z,76.86
2019-01-21T02:59:55.376Z,76.96
2019-01-21T03:00:55.396Z,76.43
2019-01-21T03:01:55.360Z,76.75
2019-01-21T03:02:55.446Z,75.91
2019-01-21T03:03:55.330Z,76.02
2019-01-21T03:04:55.326Z,75.28
2019-01-21T03:05:55.314Z,75.81
2019-01-21T03:06:55.303Z,76.43
2019-01-21T03:07:55.297Z,77.07
2019-01-21T03:08:55.280Z,77.91
2019-01-21T03:09:55.269Z,78.43
2019-01-21T03:10:55.832Z,76.86
2019-01-21T03:11:55.247Z,76.79
2019-01-21T03:12:55.253Z,77.10
2019-01-21T03:13:55.232Z,77.62
2019-01-21T03:14:55.215Z,76.96
2019-01-21T03:15:55.199Z,77.07
2019-01-21T03:16:55.203Z,76.54
2019-01-21T03:17:55.188Z,76.23
2019-01-21T03:18:55.184Z,76.75
2019-01-21T03:19:55.167Z,76.23
2019-01-21T03:20:55.153Z,76.33
2019-01-21T03:21:55.134Z,77.07
2019-01-21T03:22:55.148Z,76.86
2019-01-21T03:23:55.132Z,76.86
2019-01-21T03:24:55.124Z,76.75
2019-01-21T03:25:55.097Z,76.47
2019-01-21T03:26:55.083Z,77.21
2019-01-21T03:27:55.112Z,78.67
2019-01-21T03:28:55.068Z,77.94
2019-01-21T03:29:55.061Z,78.67
2019-01-21T03:30:55.077Z,77.28
2019-01-21T03:31:55.037Z,77.21
2019-01-21T03:32:55.045Z,77.07
2019-01-21T03:33:55.017Z,76.12
2019-01-21T03:34:54.999Z,76.89
2019-01-21T03:35:54.991Z,77.10
2019-01-21T03:36:54.973Z,77.17
2019-01-21T03:37:54.964Z,77.10
2019-01-21T03:38:54.959Z,76.65
2019-01-21T03:39:54.949Z,76.86
2019-01-21T03:40:54.934Z,76.65
2019-01-21T03:41:54.932Z,76.96
2019-01-21T03:42:54.906Z,76.54
2019-01-21T03:43:54.894Z,76.33
2019-01-21T03:44:54.896Z,77.62
2019-01-21T03:45:54.874Z,79.21
2019-01-21T03:46:54.874Z,77.59
2019-01-21T03:47:55.010Z,76.96
2019-01-21T03:48:54.845Z,78.01
2019-01-21T03:49:54.829Z,77.59
2019-01-21T03:50:54.822Z,76.96
2019-01-21T03:51:54.810Z,76.12
2019-01-21T03:52:54.801Z,76.43
2019-01-21T03:53:54.783Z,76.96
2019-01-21T03:54:54.771Z,76.54
2019-01-21T03:55:54.758Z,75.70
2019-01-21T03:56:54.758Z,76.33
2019-01-21T03:57:54.748Z,75.18
2019-01-21T03:58:54.749Z,76.54
2019-01-21T03:59:54.719Z,77.07
2019-01-21T04:00:54.711Z,76.96
2019-01-21T04:01:54.703Z,76.54
2019-01-21T04:02:54.688Z,76.86
2019-01-21T04:03:54.690Z,76.54
2019-01-21T04:04:54.665Z,76.43
2019-01-21T04:05:54.664Z,76.43
2019-01-21T04:06:54.643Z,76.75
2019-01-21T04:07:54.721Z,76.79
2019-01-21T04:08:54.625Z,78.67
2019-01-21T04:09:54.622Z,77.42
2019-01-21T04:10:54.596Z,78.47
2019-01-21T04:11:54.590Z,78.47
2019-01-21T04:12:54.586Z,78.36
2019-01-21T04:13:54.574Z,77.42
2019-01-21T04:14:54.560Z,77.10
2019-01-21T04:15:54.558Z,77.62
2019-01-21T04:16:54.531Z,77.21
2019-01-21T04:17:54.587Z,77.00
2019-01-21T04:18:54.521Z,77.21
2019-01-21T04:19:54.499Z,77.66
2019-01-21T04:20:54.511Z,77.56
2019-01-21T04:21:54.491Z,78.40
2019-01-21T04:22:54.507Z,78.40
2019-01-21T04:23:54.462Z,78.71
2019-01-21T04:24:54.448Z,79.55
2019-01-21T04:25:54.578Z,80.08
2019-01-21T04:26:54.425Z,78.89
2019-01-21T04:27:54.417Z,77.52
2019-01-21T04:28:54.402Z,77.21
2019-01-21T04:29:54.392Z,77.07
2019-01-21T04:30:54.382Z,76.05
2019-01-21T04:31:54.380Z,76.26
2019-01-21T04:32:54.358Z,76.57
2019-01-21T04:33:54.357Z,76.47
2019-01-21T04:34:54.332Z,76.89
2019-01-21T04:35:54.332Z,76.37
2019-01-21T04:36:54.347Z,76.89
2019-01-21T04:37:54.321Z,77.10
2019-01-21T04:38:54.296Z,76.57
2019-01-21T04:39:54.295Z,75.91
2019-01-21T04:40:54.270Z,76.47
2019-01-21T04:41:54.273Z,77.00
2019-01-21T04:42:54.248Z,77.10
2019-01-21T04:43:54.238Z,77.38
2019-01-21T04:44:54.229Z,75.81
2019-01-21T04:45:54.216Z,76.02
2019-01-21T04:46:54.209Z,76.05
2019-01-21T04:47:54.207Z,75.74
2019-01-21T04:48:54.184Z,76.47
2019-01-21T04:49:54.173Z,77.21
2019-01-21T04:50:54.162Z,77.21
2019-01-21T04:51:54.156Z,77.14
2019-01-21T04:52:54.144Z,77.66
2019-01-21T04:53:54.137Z,77.56
2019-01-21T04:54:54.119Z,78.40
2019-01-21T04:55:54.107Z,77.45
2019-01-21T04:56:54.102Z,77.31
2019-01-21T04:57:54.086Z,78.47
2019-01-21T04:58:54.085Z,78.36
2019-01-21T04:59:54.066Z,78.82
2019-01-21T05:00:54.054Z,77.42
2019-01-21T05:01:54.049Z,77.52
2019-01-21T05:02:54.057Z,77.21
2019-01-21T05:03:54.179Z,76.68
2019-01-21T05:04:54.013Z,77.14
2019-01-21T05:05:54.015Z,77.14
2019-01-21T05:06:53.990Z,78.71
2019-01-21T05:07:53.983Z,78.82
2019-01-21T05:08:54.019Z,78.40
2019-01-21T05:09:53.951Z,77.66
2019-01-21T05:10:53.955Z,78.71
2019-01-21T05:11:53.950Z,77.87
2019-01-21T05:12:53.923Z,78.61
2019-01-21T05:13:53.921Z,78.78
2019-01-21T05:14:53.902Z,77.42
2019-01-21T05:15:53.886Z,77.52
2019-01-21T05:16:53.882Z,77.21
2019-01-21T05:17:53.870Z,77.21
2019-01-21T05:18:53.861Z,76.89
2019-01-21T05:19:53.866Z,77.14
2019-01-21T05:20:53.830Z,78.92
2019-01-21T05:21:53.836Z,78.61
2019-01-21T05:22:53.820Z,79.13
2019-01-21T05:23:53.803Z,78.67
2019-01-21T05:24:53.787Z,77.62
2019-01-21T05:25:53.816Z,78.67
2019-01-21T05:26:53.764Z,76.79
2019-01-21T05:27:53.766Z,77.66
2019-01-21T05:28:53.751Z,77.10
2019-01-21T05:29:53.736Z,77.00
2019-01-21T05:30:53.773Z,77.21
2019-01-21T05:31:53.706Z,78.05
2019-01-21T05:32:53.700Z,77.62
2019-01-21T05:33:53.683Z,77.21
2019-01-21T05:34:53.674Z,77.62
2019-01-21T05:35:53.663Z,77.73
2019-01-21T05:36:53.651Z,77.38
2019-01-21T05:37:53.643Z,75.70
2019-01-21T05:38:53.639Z,75.74
2019-01-21T05:39:53.620Z,75.38
2019-01-21T05:40:53.615Z,76.37
2019-01-21T05:41:53.593Z,75.42
2019-01-21T05:42:53.597Z,76.68
2019-01-21T05:43:53.580Z,77.10
2019-01-21T05:44:53.561Z,77.17
2019-01-21T05:45:53.555Z,77.21
2019-01-21T05:46:53.547Z,77.38
2019-01-21T05:47:53.537Z,76.79
2019-01-21T05:48:53.531Z,76.23
2019-01-21T05:49:53.514Z,76.43
2019-01-21T05:50:53.498Z,76.43
2019-01-21T05:51:53.500Z,76.12
2019-01-21T05:52:53.483Z,75.70
2019-01-21T05:53:53.470Z,75.70
2019-01-21T05:54:53.454Z,75.07
2019-01-21T05:55:53.449Z,74.86
2019-01-21T05:56:53.429Z,75.07
2019-01-21T05:57:53.418Z,74.86
2019-01-21T05:58:53.411Z,76.26
2019-01-21T05:59:53.405Z,76.37
2019-01-21T06:00:53.404Z,76.57
2019-01-21T06:01:53.393Z,77.00
2019-01-21T06:02:53.367Z,77.24
2019-01-21T06:03:53.357Z,77.87
2019-01-21T06:04:53.349Z,78.05
2019-01-21T06:05:53.337Z,78.67
2019-01-21T06:06:53.337Z,77.31
2019-01-21T06:07:53.315Z,77.21
2019-01-21T06:08:53.302Z,77.21
2019-01-21T06:09:53.292Z,76.68
2019-01-21T06:10:53.281Z,76.43
2019-01-21T06:11:53.271Z,75.42
2019-01-21T06:12:53.265Z,76.68
2019-01-21T06:13:53.250Z,76.47
2019-01-21T06:14:53.238Z,76.89
2019-01-21T06:15:53.235Z,76.68
2019-01-21T06:16:53.222Z,77.21
2019-01-21T06:17:53.230Z,77.00
2019-01-21T06:18:57.455Z,78.57
2019-01-21T06:19:53.182Z,78.57
2019-01-21T06:20:53.195Z,77.21
2019-01-21T06:21:53.162Z,77.42
2019-01-21T06:22:53.159Z,76.75
2019-01-21T06:23:53.150Z,76.02
2019-01-21T06:24:53.122Z,75.74
2019-01-21T06:25:53.114Z,75.38
2019-01-21T06:26:53.098Z,76.23
2019-01-21T06:27:53.092Z,75.81
2019-01-21T06:28:53.097Z,76.26
2019-01-21T06:29:53.068Z,76.51
2019-01-21T06:30:53.058Z,77.14
2019-01-21T06:31:53.049Z,77.66
2019-01-21T06:32:53.033Z,77.66
2019-01-21T06:33:53.028Z,78.92
2019-01-21T06:34:53.015Z,78.61
2019-01-21T06:35:52.999Z,78.40
2019-01-21T06:36:52.995Z,78.50
2019-01-21T06:37:52.980Z,78.89
2019-01-21T06:38:52.968Z,78.92
2019-01-21T06:39:52.965Z,79.52
2019-01-21T06:40:52.948Z,78.26
2019-01-21T06:41:52.957Z,78.64
2019-01-21T06:42:52.929Z,77.31
2019-01-21T06:43:52.913Z,76.47
2019-01-21T06:44:52.905Z,76.57
2019-01-21T06:45:52.914Z,76.37
2019-01-21T06:46:52.881Z,76.57
2019-01-21T06:47:52.874Z,76.37
2019-01-21T06:48:52.853Z,76.47
2019-01-21T06:49:52.845Z,76.72
2019-01-21T06:50:52.841Z,76.68
2019-01-21T06:51:52.821Z,76.93
2019-01-21T06:52:52.818Z,77.21
2019-01-21T06:53:52.804Z,77.21
2019-01-21T06:54:52.788Z,76.68
2019-01-21T06:55:52.783Z,76.57
2019-01-21T06:56:52.779Z,77.24
2019-01-21T06:57:52.768Z,78.82
2019-01-21T06:58:52.777Z,78.92
2019-01-21T06:59:52.736Z,77.87
2019-01-21T07:00:52.723Z,78.82
2019-01-21T07:01:52.714Z,78.71
2019-01-21T07:02:52.708Z,78.61
2019-01-21T07:03:52.699Z,79.03
2019-01-21T07:04:52.681Z,79.83
2019-01-21T07:05:52.673Z,77.42
2019-01-21T07:06:52.679Z,76.68
2019-01-21T07:07:52.641Z,77.42
2019-01-21T07:08:52.634Z,77.10
2019-01-21T07:09:52.618Z,76.86
2019-01-21T07:10:52.622Z,76.86
2019-01-21T07:11:52.601Z,76.02
2019-01-21T07:12:52.591Z,76.54
2019-01-21T07:13:52.579Z,76.37
2019-01-21T07:14:52.570Z,76.43
2019-01-21T07:15:52.554Z,77.17
2019-01-21T07:16:52.552Z,78.43
2019-01-21T07:17:52.534Z,76.65
2019-01-21T07:18:52.524Z,76.43
2019-01-21T07:19:52.513Z,76.57
2019-01-21T07:20:52.496Z,77.21
2019-01-21T07:21:52.489Z,76.86
2019-01-21T07:22:52.478Z,75.49
2019-01-21T07:23:53.116Z,76.54
2019-01-21T07:24:52.480Z,75.88
2019-01-21T07:25:52.453Z,75.78
2019-01-21T07:26:52.435Z,75.14
2019-01-21T07:27:52.417Z,75.04
2019-01-21T07:28:52.409Z,75.60
2019-01-21T07:29:52.402Z,75.88
2019-01-21T07:30:52.400Z,75.25
2019-01-21T07:31:52.433Z,76.12
2019-01-21T07:32:52.366Z,75.28
2019-01-21T07:33:52.359Z,76.12
2019-01-21T07:34:52.348Z,76.89
2019-01-21T07:35:52.336Z,78.75
2019-01-21T07:36:52.321Z,77.17
2019-01-21T07:37:52.310Z,76.54
2019-01-21T07:38:52.297Z,76.29
2019-01-21T07:39:52.285Z,75.35
2019-01-21T07:40:52.274Z,75.88
2019-01-21T07:41:52.266Z,75.14
2019-01-21T07:42:52.257Z,74.93
2019-01-21T07:43:52.241Z,74.86
2019-01-21T07:44:52.234Z,75.81
2019-01-21T07:45:52.220Z,75.60
2019-01-21T07:46:52.206Z,75.60
2019-01-21T07:47:52.194Z,76.33
2019-01-21T07:48:52.189Z,75.91
2019-01-21T07:49:52.177Z,76.09
2019-01-21T07:50:52.199Z,76.82
2019-01-21T07:51:52.155Z,77.34
2019-01-21T07:52:52.142Z,76.19
2019-01-21T07:53:52.130Z,75.04
2019-01-21T07:54:52.116Z,74.93
2019-01-21T07:55:52.109Z,75.98
2019-01-21T07:56:52.097Z,75.56
2019-01-21T07:57:52.096Z,75.78
2019-01-21T07:58:52.074Z,75.25
2019-01-21T07:59:52.066Z,74.79
2019-01-21T08:00:52.056Z,75.21
2019-01-21T08:01:52.041Z,75.21
2019-01-21T08:02:52.028Z,75.35
2019-01-21T08:03:52.012Z,75.25
2019-01-21T08:04:52.014Z,75.67
2019-01-21T08:05:52.002Z,76.29
2019-01-21T08:06:51.985Z,75.98
2019-01-21T08:07:51.978Z,75.70
2019-01-21T08:08:51.958Z,75.74
2019-01-21T08:09:51.956Z,76.37
2019-01-21T08:10:51.943Z,76.79
2019-01-21T08:11:52.805Z,78.89
2019-01-21T08:12:51.924Z,77.42
2019-01-21T08:13:51.919Z,77.94
2019-01-21T08:14:51.899Z,78.57
2019-01-21T08:15:51.891Z,78.43
2019-01-21T08:16:51.874Z,78.47
2019-01-21T08:17:52.620Z,77.52
2019-01-21T08:18:51.856Z,77.10
2019-01-21T08:19:51.840Z,77.52
2019-01-21T08:20:51.839Z,78.67
2019-01-21T08:21:51.829Z,78.61
2019-01-21T08:22:51.812Z,78.50
2019-01-21T08:23:51.809Z,77.62
2019-01-21T08:24:51.789Z,78.82
2019-01-21T08:25:51.779Z,78.26
2019-01-21T08:26:51.773Z,78.78
2019-01-21T08:27:51.788Z,78.99
2019-01-21T08:28:51.761Z,78.53
2019-01-21T08:29:51.737Z,77.59
2019-01-21T08:30:51.723Z,77.56
2019-01-21T08:31:51.715Z,75.14
2019-01-21T08:32:51.703Z,75.98
2019-01-21T08:33:51.701Z,74.93
2019-01-21T08:34:51.683Z,75.04
2019-01-21T08:35:51.667Z,75.46
2019-01-21T08:36:51.659Z,75.35
2019-01-21T08:37:51.649Z,75.14
2019-01-21T08:38:51.640Z,74.83
2019-01-21T08:39:51.628Z,75.18
2019-01-21T08:40:51.613Z,75.49
2019-01-21T08:41:51.611Z,74.97
2019-01-21T08:42:51.592Z,76.05
2019-01-21T08:43:51.581Z,76.26
2019-01-21T08:44:51.576Z,75.63
2019-01-21T08:45:51.561Z,76.47
2019-01-21T08:46:51.580Z,76.79
2019-01-21T08:47:51.532Z,75.42
2019-01-21T08:48:51.522Z,76.61
2019-01-21T08:49:51.524Z,77.03
2019-01-21T08:50:51.510Z,77.45
2019-01-21T08:51:51.495Z,77.66
2019-01-21T08:52:51.582Z,77.03
2019-01-21T08:53:51.467Z,78.71
2019-01-21T08:54:51.465Z,78.50
2019-01-21T08:55:51.446Z,78.08
2019-01-21T08:56:51.438Z,77.66
2019-01-21T08:57:51.420Z,77.45
2019-01-21T08:58:51.415Z,77.14
2019-01-21T08:59:51.401Z,77.14
2019-01-21T09:00:51.388Z,77.14
2019-01-21T09:01:51.373Z,77.14
2019-01-21T09:02:51.366Z,77.56
2019-01-21T09:03:51.356Z,78.71
2019-01-21T09:04:51.345Z,78.36
2019-01-21T09:05:51.332Z,77.52
2019-01-21T09:06:51.322Z,77.24
2019-01-21T09:07:51.326Z,78.47
2019-01-21T09:08:51.306Z,77.42
2019-01-21T09:09:51.305Z,78.99
2019-01-21T09:10:51.277Z,78.75
2019-01-21T09:11:51.279Z,76.37
2019-01-21T09:12:51.254Z,75.91
2019-01-21T09:13:51.246Z,75.91
2019-01-21T09:14:51.233Z,76.86
2019-01-21T09:15:51.218Z,75.81
2019-01-21T09:16:51.209Z,76.79
2019-01-21T09:17:51.206Z,76.75
2019-01-21T09:18:51.190Z,77.17
2019-01-21T09:19:51.176Z,76.43
2019-01-21T09:20:51.205Z,75.91
2019-01-21T09:21:51.162Z,75.74
2019-01-21T09:22:51.146Z,76.47
2019-01-21T09:23:51.147Z,76.72
2019-01-21T09:24:51.117Z,78.57
2019-01-21T09:25:51.110Z,78.57
2019-01-21T09:26:51.112Z,78.75
2019-01-21T09:27:51.124Z,78.64
2019-01-21T09:28:51.069Z,78.01
2019-01-21T09:29:51.061Z,78.75
2019-01-21T09:30:51.054Z,76.29
2019-01-21T09:31:51.058Z,75.14
2019-01-21T09:32:51.038Z,75.98
2019-01-21T09:33:51.022Z,75.56
2019-01-21T09:34:51.005Z,75.56
2019-01-21T09:35:51.005Z,75.14
2019-01-21T09:36:51.029Z,74.30
2019-01-21T09:37:50.986Z,75.35
2019-01-21T09:38:50.963Z,74.79
2019-01-21T09:39:50.952Z,75.21
2019-01-21T09:40:50.950Z,75.21
2019-01-21T09:41:50.938Z,75.21
2019-01-21T09:42:50.923Z,75.74
2019-01-21T09:43:50.931Z,75.25
2019-01-21T09:44:50.895Z,75.04
2019-01-21T09:45:50.948Z,75.14
2019-01-21T09:46:50.874Z,75.18
2019-01-21T09:47:50.863Z,75.91
2019-01-21T09:48:50.861Z,75.81
2019-01-21T09:49:50.839Z,76.02
2019-01-21T09:50:50.830Z,76.43
2019-01-21T09:51:50.821Z,76.75
2019-01-21T09:52:50.805Z,76.65
2019-01-21T09:53:50.791Z,76.54
2019-01-21T09:54:50.803Z,76.15
2019-01-21T09:55:50.773Z,76.02
2019-01-21T09:56:50.758Z,76.65
2019-01-21T09:57:50.751Z,76.19
2019-01-21T09:58:50.740Z,76.09
2019-01-21T09:59:50.725Z,75.63
2019-01-21T10:00:50.716Z,74.90
2019-01-21T10:01:50.707Z,74.79
2019-01-21T10:02:50.691Z,74.55
2019-01-21T10:03:50.688Z,73.50
2019-01-21T10:04:51.023Z,72.98
2019-01-21T10:05:50.658Z,73.01
2019-01-21T10:06:50.651Z,73.22
2019-01-21T10:07:50.643Z,73.96
2019-01-21T10:08:50.635Z,74.73
2019-01-21T10:09:55.289Z,74.06
2019-01-21T10:10:50.617Z,73.85
2019-01-21T10:11:50.598Z,75.01
2019-01-21T10:12:50.597Z,75.42
2019-01-21T10:13:50.570Z,74.34
2019-01-21T10:14:50.570Z,73.61
2019-01-21T10:15:50.562Z,73.39
2019-01-21T10:16:50.563Z,73.61
2019-01-21T10:17:50.528Z,72.74
2019-01-21T10:18:50.525Z,72.00
2019-01-21T10:19:52.185Z,72.00
2019-01-21T10:20:50.500Z,72.45
2019-01-21T10:21:50.488Z,72.66
2019-01-21T10:22:50.477Z,73.39
2019-01-21T10:23:50.474Z,73.43
2019-01-21T10:24:50.458Z,74.69
2019-01-21T10:25:50.443Z,74.16
2019-01-21T10:26:50.442Z,74.16
2019-01-21T10:27:50.425Z,74.16
2019-01-21T10:28:50.416Z,73.96
2019-01-21T10:29:50.401Z,73.96
2019-01-21T10:30:50.391Z,73.43
2019-01-21T10:31:50.378Z,73.64
2019-01-21T10:32:50.371Z,73.11
2019-01-21T10:33:50.360Z,73.01
2019-01-21T10:34:50.347Z,73.54
2019-01-21T10:35:50.339Z,73.39
2019-01-21T10:36:50.328Z,72.80
2019-01-21T10:37:50.349Z,74.06
2019-01-21T10:38:50.305Z,74.16
2019-01-21T10:39:50.308Z,74.58
2019-01-21T10:40:50.282Z,73.71
2019-01-21T10:41:50.275Z,72.98
2019-01-21T10:42:50.260Z,72.77
2019-01-21T10:43:50.248Z,73.08
2019-01-21T10:44:50.245Z,73.85
2019-01-21T10:45:50.229Z,74.90
2019-01-21T10:46:50.221Z,74.69
2019-01-21T10:47:50.219Z,74.13
2019-01-21T10:48:50.198Z,73.92
2019-01-21T10:49:50.189Z,73.92
2019-01-21T10:50:50.180Z,73.61
2019-01-21T10:51:50.171Z,72.77
2019-01-21T10:52:50.159Z,72.77
2019-01-21T10:53:50.149Z,72.77
2019-01-21T10:54:50.130Z,73.39
2019-01-21T10:55:50.122Z,72.87
2019-01-21T10:56:50.118Z,73.50
2019-01-21T10:57:50.117Z,74.02
2019-01-21T10:58:50.096Z,73.08
2019-01-21T10:59:50.106Z,72.91
2019-01-21T11:00:50.072Z,73.22
2019-01-21T11:01:50.072Z,73.43
2019-01-21T11:02:50.051Z,74.73
2019-01-21T11:03:50.036Z,74.83
2019-01-21T11:04:50.034Z,76.09
2019-01-21T11:05:50.019Z,74.90
2019-01-21T11:06:50.006Z,74.37
2019-01-21T11:07:49.994Z,73.78
2019-01-21T11:08:49.985Z,74.20
2019-01-21T11:09:49.975Z,75.14
2019-01-21T11:10:49.969Z,75.46
2019-01-21T11:11:53.928Z,74.20
2019-01-21T11:12:49.950Z,75.25
2019-01-21T11:13:49.927Z,74.83
2019-01-21T11:14:49.920Z,75.25
2019-01-21T11:15:49.911Z,75.35
2019-01-21T11:16:49.910Z,75.25
2019-01-21T11:17:49.892Z,74.30
2019-01-21T11:18:49.915Z,75.04
2019-01-21T11:19:49.875Z,74.73
2019-01-21T11:20:49.857Z,74.73
2019-01-21T11:21:49.853Z,74.41
2019-01-21T11:22:49.832Z,74.51
2019-01-21T11:23:49.819Z,75.25
2019-01-21T11:24:49.809Z,75.04
2019-01-21T11:25:49.805Z,74.62
2019-01-21T11:26:49.793Z,73.99
2019-01-21T11:27:49.780Z,73.25
2019-01-21T11:28:49.771Z,74.09
2019-01-21T11:29:49.759Z,74.16
2019-01-21T11:30:49.745Z,74.30
2019-01-21T11:31:49.731Z,74.73
2019-01-21T11:32:49.740Z,75.14
2019-01-21T11:33:49.715Z,74.73
2019-01-21T11:34:49.704Z,74.62
2019-01-21T11:35:49.696Z,73.88
2019-01-21T11:36:49.683Z,73.96
2019-01-21T11:37:49.671Z,73.61
2019-01-21T11:38:49.658Z,72.56
2019-01-21T11:39:49.668Z,72.56
2019-01-21T11:40:49.640Z,72.56
2019-01-21T11:41:49.648Z,72.45
2019-01-21T11:42:49.615Z,72.14
2019-01-21T11:43:49.611Z,72.14
2019-01-21T11:44:49.594Z,72.24
2019-01-21T11:45:49.583Z,72.45
2019-01-21T11:46:49.576Z,72.91
2019-01-21T11:47:49.580Z,73.01
2019-01-21T11:48:49.548Z,73.43
2019-01-21T11:49:49.548Z,74.69
2019-01-21T11:50:49.526Z,74.16
2019-01-21T11:51:49.522Z,74.27
2019-01-21T11:52:49.519Z,73.99
2019-01-21T11:53:49.500Z,74.51
2019-01-21T11:54:49.489Z,73.43
2019-01-21T11:55:49.477Z,73.85
2019-01-21T11:56:49.482Z,73.96
2019-01-21T11:57:49.453Z,73.99
2019-01-21T11:58:49.452Z,74.20
2019-01-21T11:59:49.464Z,74.20
2019-01-21T12:00:49.423Z,74.58
2019-01-21T12:01:49.407Z,74.37
2019-01-21T12:02:49.405Z,74.83
2019-01-21T12:03:49.396Z,73.68
2019-01-21T12:04:49.377Z,74.93
2019-01-21T12:05:49.366Z,74.93
2019-01-21T12:06:49.356Z,75.14
2019-01-21T12:07:49.351Z,74.48
2019-01-21T12:08:49.334Z,73.99
2019-01-21T12:09:49.321Z,75.14
2019-01-21T12:10:49.311Z,74.58
2019-01-21T12:11:49.307Z,74.62
2019-01-21T12:12:49.851Z,75.14
2019-01-21T12:13:49.280Z,74.48
2019-01-21T12:14:49.275Z,74.06
2019-01-21T12:15:49.257Z,73.74
2019-01-21T12:16:49.245Z,73.54
2019-01-21T12:17:49.235Z,74.27
2019-01-21T12:18:49.227Z,74.73
2019-01-21T12:19:49.222Z,74.93
2019-01-21T12:20:49.204Z,74.93
2019-01-21T12:21:49.189Z,75.56
2019-01-21T12:22:49.183Z,75.21
2019-01-21T12:23:49.209Z,75.25
2019-01-21T12:24:49.173Z,74.69
2019-01-21T12:25:49.162Z,74.06
2019-01-21T12:26:49.138Z,73.11
2019-01-21T12:27:49.126Z,73.11
2019-01-21T12:28:49.119Z,73.01
2019-01-21T12:29:49.105Z,73.33
2019-01-21T12:30:49.097Z,73.68
2019-01-21T12:31:49.087Z,74.16
2019-01-21T12:32:49.074Z,73.85
2019-01-21T12:33:49.062Z,73.22
2019-01-21T12:34:49.052Z,73.39
2019-01-21T12:35:49.036Z,73.85
2019-01-21T12:36:49.036Z,75.81
2019-01-21T12:37:49.022Z,73.50
2019-01-21T12:38:49.009Z,72.87
2019-01-21T12:39:49.002Z,72.77
2019-01-21T12:40:49.019Z,72.66
2019-01-21T12:41:48.974Z,73.39
2019-01-21T12:42:48.969Z,73.57
2019-01-21T12:43:48.964Z,72.52
2019-01-21T12:44:48.946Z,73.29
2019-01-21T12:45:48.932Z,72.84
2019-01-21T12:46:48.920Z,72.42
2019-01-21T12:47:48.920Z,72.14
2019-01-21T12:48:48.899Z,72.63
2019-01-21T12:49:48.902Z,72.94
2019-01-21T12:50:48.899Z,72.31
2019-01-21T12:51:48.882Z,71.89
2019-01-21T12:52:48.859Z,71.89